createdAt,value
2023-04-24T00:00:07.960Z,0
2023-04-24T00:05:08.564Z,0
2023-04-24T00:10:08.630Z,0
2023-04-24T00:15:08.722Z,0
2023-04-24T00:20:08.787Z,0
2023-04-24T00:25:08.838Z,0
2023-04-24T00:30:08.938Z,0
2023-04-24T00:35:07.989Z,0
2023-04-24T00:40:08.015Z,0
2023-04-24T00:45:08.053Z,0
2023-04-24T00:50:08.145Z,0
2023-04-24T00:55:08.192Z,0
2023-04-24T01:00:08.285Z,0
2023-04-24T01:05:08.253Z,0
2023-04-24T01:10:08.299Z,0
2023-04-24T01:15:08.340Z,0
2023-04-24T01:20:08.370Z,0
2023-04-24T01:25:08.423Z,0
2023-04-24T01:30:08.473Z,0
2023-04-24T01:35:08.503Z,0
2023-04-24T01:40:08.548Z,0
2023-04-24T01:45:08.596Z,0
2023-04-24T01:50:08.638Z,0
2023-04-24T01:55:08.721Z,0
2023-04-24T02:00:08.800Z,0
2023-04-24T02:05:08.873Z,0
2023-04-24T02:10:08.945Z,0
2023-04-24T02:15:08.019Z,0
2023-04-24T02:20:08.112Z,0
2023-04-24T02:25:08.146Z,0
2023-04-24T02:30:08.225Z,0
2023-04-24T02:35:08.299Z,0
2023-04-24T02:40:08.419Z,0
2023-04-24T02:45:08.469Z,0
2023-04-24T02:50:08.507Z,0
2023-04-24T02:55:08.572Z,0
2023-04-24T03:00:08.570Z,0
2023-04-24T03:05:08.612Z,0
2023-04-24T03:10:08.633Z,0
2023-04-24T03:15:08.666Z,0
2023-04-24T03:20:08.739Z,0
2023-04-24T03:25:08.782Z,0
2023-04-24T03:30:08.843Z,0
2023-04-24T03:35:08.902Z,0
2023-04-24T03:40:08.980Z,0
2023-04-24T03:45:08.023Z,0
2023-04-24T03:50:08.115Z,2
2023-04-24T03:55:08.194Z,3
2023-04-24T04:00:08.273Z,8
2023-04-24T04:05:02.696Z,8
2023-04-24T04:10:02.862Z,28
2023-04-24T04:15:02.992Z,30
2023-04-24T04:20:02.115Z,52
2023-04-24T04:25:02.261Z,57
2023-04-24T04:30:02.924Z,72
2023-04-24T04:35:02.119Z,256
2023-04-24T04:40:02.368Z,412
2023-04-24T04:45:02.513Z,555
2023-04-24T04:50:02.612Z,440
2023-04-24T04:55:02.878Z,316
2023-04-24T05:00:03.018Z,326
2023-04-24T05:05:02.264Z,515
2023-04-24T05:10:02.422Z,889
2023-04-24T05:15:02.579Z,837
2023-04-24T05:20:02.717Z,574
2023-04-24T05:25:02.951Z,453
2023-04-24T05:30:02.089Z,461
2023-04-24T05:35:02.274Z,621
2023-04-24T05:40:02.497Z,743
2023-04-24T05:45:02.861Z,1000
2023-04-24T05:50:03.041Z,1000
2023-04-24T05:55:02.260Z,2000
2023-04-24T06:00:02.412Z,3000
2023-04-24T06:05:02.874Z,4000
2023-04-24T06:10:02.263Z,5000
2023-04-24T06:15:02.387Z,5000
2023-04-24T06:20:02.638Z,2000
2023-04-24T06:25:02.758Z,2000
2023-04-24T06:30:02.910Z,738
2023-04-24T06:35:03.046Z,403
2023-04-24T06:40:02.240Z,816
2023-04-24T06:45:02.357Z,1000
2023-04-24T06:50:02.597Z,1000
2023-04-24T06:55:02.737Z,1000
2023-04-24T07:00:02.992Z,4000
2023-04-24T07:05:02.105Z,5000
2023-04-24T07:10:02.248Z,5000
2023-04-24T07:15:02.352Z,6000
2023-04-24T07:20:02.606Z,7000
2023-04-24T07:25:02.857Z,7000
2023-04-24T07:30:02.976Z,9000
2023-04-24T07:35:02.149Z,12000
2023-04-24T07:40:02.404Z,8000
2023-04-24T07:45:02.628Z,7000
2023-04-24T07:50:02.824Z,5000
2023-04-24T07:55:02.970Z,4000
2023-04-24T08:00:02.155Z,3000
2023-04-24T08:05:02.785Z,4000
2023-04-24T08:10:02.169Z,6000
2023-04-24T08:15:02.421Z,8000
2023-04-24T08:20:02.827Z,7000
2023-04-24T08:25:02.194Z,5000
2023-04-24T08:30:02.438Z,5000
2023-04-24T08:35:02.650Z,3000
2023-04-24T08:40:02.827Z,1000
2023-04-24T08:45:02.140Z,3000
2023-04-24T08:50:02.314Z,5000
2023-04-24T08:55:02.498Z,5000
2023-04-24T09:00:02.696Z,6000
2023-04-24T09:05:02.949Z,5000
2023-04-24T09:10:02.213Z,4000
2023-04-24T09:15:02.422Z,4000
2023-04-24T09:20:02.575Z,4000
2023-04-24T09:25:02.779Z,4000
2023-04-24T09:30:03.106Z,5000
2023-04-24T09:35:02.277Z,5000
2023-04-24T09:40:02.402Z,7000
2023-04-24T09:50:02.554Z,4000
2023-04-24T09:55:02.722Z,4000
2023-04-24T10:00:02.845Z,9000
2023-04-24T10:05:03.125Z,9000
2023-04-24T10:10:02.408Z,9000
2023-04-24T10:15:02.567Z,10000
2023-04-24T10:20:02.801Z,10000
2023-04-24T10:25:02.967Z,10000
2023-04-24T10:30:02.142Z,11000
2023-04-24T10:35:02.291Z,12000
2023-04-24T10:40:02.499Z,13000
2023-04-24T10:45:02.769Z,19000
2023-04-24T10:50:02.933Z,26000
2023-04-24T10:55:02.103Z,24000
2023-04-24T11:00:02.310Z,14000
2023-04-24T11:05:02.618Z,27000
2023-04-24T11:10:02.829Z,64000
2023-04-24T11:15:03.651Z,64000
2023-04-24T11:20:26.864Z,38000
2023-04-24T11:25:02.770Z,38000
2023-04-24T11:30:03.239Z,17000
2023-04-24T11:35:02.837Z,17000
2023-04-24T11:40:03.285Z,12000
2023-04-24T11:45:03.085Z,17000
2023-04-24T11:50:03.181Z,17000
2023-04-24T11:55:02.792Z,23000
2023-04-24T12:00:02.358Z,7000
2023-04-24T12:05:03.208Z,7000
2023-04-24T12:10:03.126Z,25000
2023-04-24T12:15:02.861Z,25000
2023-04-24T12:20:02.221Z,7000
2023-04-24T12:25:02.363Z,7000
2023-04-24T12:30:02.570Z,13000
2023-04-24T12:35:02.795Z,27000
2023-04-24T12:40:06.852Z,14000
2023-04-24T12:45:05.191Z,11000
2023-04-24T12:50:02.409Z,11000
2023-04-24T12:55:02.539Z,11000
2023-04-24T13:00:02.765Z,11000
2023-04-24T13:05:02.975Z,3000
2023-04-24T13:10:02.430Z,3000
2023-04-24T13:15:02.624Z,3000
2023-04-24T13:20:02.707Z,4000
2023-04-24T13:25:03.050Z,3000
2023-04-24T13:30:02.328Z,3000
2023-04-24T13:35:02.577Z,5000
2023-04-24T13:40:02.814Z,6000
2023-04-24T13:45:11.078Z,6000
2023-04-24T13:50:03.016Z,4000
2023-04-24T13:55:02.142Z,6000
2023-04-24T14:00:02.484Z,8000
2023-04-24T14:05:02.779Z,14000
2023-04-24T14:10:02.209Z,15000
2023-04-24T14:15:02.514Z,13000
2023-04-24T14:20:02.775Z,13000
2023-04-24T14:25:02.967Z,18000
2023-04-24T14:30:02.251Z,18000
2023-04-24T14:35:02.462Z,7000
2023-04-24T14:40:29.418Z,7000
2023-04-24T14:45:03.102Z,5000
2023-04-24T14:50:02.273Z,5000
2023-04-24T14:55:02.449Z,8000
2023-04-24T15:00:02.614Z,8000
2023-04-24T15:05:02.983Z,16000
2023-04-24T15:10:02.218Z,16000
2023-04-24T15:15:02.413Z,14000
2023-04-24T15:20:02.686Z,14000
2023-04-24T15:25:02.867Z,18000
2023-04-24T15:30:03.004Z,18000
2023-04-24T15:35:08.361Z,28000
2023-04-24T15:40:02.168Z,28000
2023-04-24T15:45:02.278Z,9000
2023-04-24T15:50:02.405Z,9000
2023-04-24T15:55:03.481Z,12000
2023-04-24T16:00:02.705Z,7000
2023-04-24T16:05:03.006Z,7000
2023-04-24T16:10:02.400Z,8000
2023-04-24T16:15:02.898Z,8000
2023-04-24T16:20:03.041Z,7000
2023-04-24T16:25:02.176Z,7000
2023-04-24T16:30:02.364Z,4000
2023-04-24T16:35:02.623Z,4000
2023-04-24T16:40:02.949Z,8000
2023-04-24T16:45:02.150Z,8000
2023-04-24T16:50:02.661Z,8000
2023-04-24T16:55:02.801Z,8000
2023-04-24T17:00:03.060Z,13000
2023-04-24T17:05:02.631Z,13000
2023-04-24T17:10:02.217Z,12000
2023-04-24T17:15:02.374Z,12000
2023-04-24T17:20:11.562Z,3000
2023-04-24T17:25:02.243Z,3000
2023-04-24T17:30:02.382Z,2000
2023-04-24T17:35:02.612Z,2000
2023-04-24T17:40:02.759Z,4000
2023-04-24T17:45:02.974Z,4000
2023-04-24T17:50:02.076Z,1000
2023-04-24T17:55:02.265Z,1000
2023-04-24T18:00:02.353Z,2000
2023-04-24T18:05:02.651Z,2000
2023-04-24T18:10:02.810Z,2000
2023-04-24T18:15:13.642Z,2000
2023-04-24T18:20:02.757Z,1000
2023-04-24T18:25:03.025Z,1000
2023-04-24T18:30:02.416Z,758
2023-04-24T18:35:02.691Z,758
2023-04-24T18:40:03.050Z,387
2023-04-24T18:45:02.287Z,387
2023-04-24T18:50:02.491Z,120
2023-04-24T18:55:02.637Z,120
2023-04-24T19:00:02.872Z,54
2023-04-24T19:05:03.010Z,54
2023-04-24T19:10:02.191Z,21
2023-04-24T19:15:02.318Z,13
2023-04-24T19:20:02.801Z,13
2023-04-24T19:25:03.428Z,3
2023-04-24T19:30:02.738Z,3
2023-04-24T19:35:03.046Z,0
2023-04-24T19:40:02.225Z,0
2023-04-24T19:45:02.362Z,0
2023-04-24T19:50:02.508Z,0
2023-04-24T19:55:02.727Z,0
2023-04-24T20:00:02.933Z,0
2023-04-24T20:05:03.279Z,0
2023-04-24T20:10:02.528Z,0
2023-04-24T20:15:02.786Z,0
2023-04-24T20:20:03.018Z,0
2023-04-24T20:25:02.230Z,0
2023-04-24T20:30:03.005Z,0
2023-04-24T20:35:02.146Z,0
2023-04-24T20:40:02.332Z,0
2023-04-24T20:45:02.625Z,0
2023-04-24T20:50:02.752Z,0
2023-04-24T20:55:02.929Z,0
2023-04-24T21:00:02.127Z,0
2023-04-24T21:05:15.120Z,0
2023-04-24T21:10:08.142Z,0
2023-04-24T21:15:08.197Z,0
2023-04-24T21:20:08.492Z,0
2023-04-24T21:25:08.575Z,0
2023-04-24T21:30:08.729Z,0
2023-04-24T21:35:08.844Z,0
2023-04-24T21:40:08.925Z,0
2023-04-24T21:45:09.004Z,0
2023-04-24T21:50:08.088Z,0
2023-04-24T21:55:09.792Z,0
2023-04-24T22:00:08.838Z,0
2023-04-24T22:05:08.840Z,0
2023-04-24T22:10:08.896Z,0
2023-04-24T22:15:08.958Z,0
2023-04-24T22:20:08.027Z,0
2023-04-24T22:25:08.128Z,0
2023-04-24T22:30:08.140Z,0
2023-04-24T22:35:08.162Z,0
2023-04-24T22:40:08.276Z,0
2023-04-24T22:45:08.295Z,0
2023-04-24T22:50:08.348Z,0
2023-04-24T22:55:08.390Z,0
2023-04-24T23:01:14.491Z,0
2023-04-24T23:05:08.531Z,0
2023-04-24T23:10:08.305Z,0
2023-04-24T23:15:08.315Z,0
2023-04-24T23:20:08.395Z,0
2023-04-24T23:25:08.445Z,0
2023-04-24T23:30:08.537Z,0
2023-04-24T23:35:08.619Z,0
2023-04-24T23:40:08.681Z,0
2023-04-24T23:45:08.672Z,0
2023-04-24T23:50:08.719Z,0
2023-04-24T23:55:08.774Z,0
